Terminal Aerodrome Forecast
Issued by NWS

Home | Current Version | Previous Version | Text Only | Print | Product List | Glossary On
Versions: 1 2 3 4 5 6 7 8 9 10 11 12 13 14 15 16 17 18 19 20 21 22 23 24 25 26 27 28
000
FTUS43 KMKX 310520
TAFUES
TAF
KUES 310520Z 3106/0106 00000KT P6SM FEW150
     FM311000 00000KT 6SM BR SCT040
      TEMPO 3110/3112 5SM BR
     FM311300 00000KT P6SM SCT060
     FM311700 05006KT P6SM SCT040
     FM010200 VRB03KT P6SM FEW250=

USA.gov is the U.S. government's official web portal to all federal, state and local government web resources and services.